sensor_id;sensor_type;location;lat;lon;timestamp;pressure;altitude;pressure_sealevel;temperature;humidity
48156;BME280;35568;48.104;11.782;2023-07-20T00:00:36;95201.25;;;22.35;35.77
48156;BME280;35568;48.104;11.782;2023-07-20T00:03:12;95197.16;;;22.32;35.61
48156;BME280;35568;48.104;11.782;2023-07-20T00:05:38;95205.54;;;22.35;35.66
48156;BME280;35568;48.104;11.782;2023-07-20T00:08:05;95213.13;;;22.20;35.96
48156;BME280;35568;48.104;11.782;2023-07-20T00:10:32;95208.31;;;22.45;35.63
48156;BME280;35568;48.104;11.782;2023-07-20T00:12:59;95198.77;;;22.53;35.47
48156;BME280;35568;48.104;11.782;2023-07-20T00:15:26;95197.73;;;22.61;35.41
48156;BME280;35568;48.104;11.782;2023-07-20T00:17:52;95198.70;;;22.47;35.67
48156;BME280;35568;48.104;11.782;2023-07-20T00:20:19;95205.06;;;22.35;35.56
48156;BME280;35568;48.104;11.782;2023-07-20T00:22:46;95211.82;;;22.60;35.52
48156;BME280;35568;48.104;11.782;2023-07-20T00:25:13;95211.51;;;22.28;35.71
48156;BME280;35568;48.104;11.782;2023-07-20T00:27:39;95209.72;;;22.36;35.63
48156;BME280;35568;48.104;11.782;2023-07-20T00:30:07;95205.36;;;22.09;36.03
48156;BME280;35568;48.104;11.782;2023-07-20T00:32:35;95207.93;;;22.17;36.12
48156;BME280;35568;48.104;11.782;2023-07-20T00:35:02;95212.63;;;22.07;35.79
48156;BME280;35568;48.104;11.782;2023-07-20T00:37:28;95217.71;;;21.93;36.44
48156;BME280;35568;48.104;11.782;2023-07-20T00:39:55;95219.60;;;21.92;36.28
48156;BME280;35568;48.104;11.782;2023-07-20T00:42:22;95217.23;;;21.88;36.13
48156;BME280;35568;48.104;11.782;2023-07-20T00:44:49;95214.39;;;21.98;36.25
48156;BME280;35568;48.104;11.782;2023-07-20T00:47:16;95212.12;;;21.90;35.97
48156;BME280;35568;48.104;11.782;2023-07-20T00:49:43;95212.98;;;22.10;36.13
48156;BME280;35568;48.104;11.782;2023-07-20T00:52:11;95220.55;;;21.80;36.23
48156;BME280;35568;48.104;11.782;2023-07-20T00:54:39;95224.51;;;22.05;36.53
48156;BME280;35568;48.104;11.782;2023-07-20T00:57:07;95226.81;;;22.02;36.39
48156;BME280;35568;48.104;11.782;2023-07-20T00:59:35;95227.27;;;21.67;36.37
48156;BME280;35568;48.104;11.782;2023-07-20T01:02:01;95220.78;;;22.24;36.37
48156;BME280;35568;48.104;11.782;2023-07-20T01:04:28;95218.05;;;21.73;36.39
48156;BME280;35568;48.104;11.782;2023-07-20T01:07:00;95218.35;;;21.94;36.48
48156;BME280;35568;48.104;11.782;2023-07-20T01:09:33;95216.48;;;21.94;36.46
48156;BME280;35568;48.104;11.782;2023-07-20T01:12:07;95224.06;;;21.95;36.66
48156;BME280;35568;48.104;11.782;2023-07-20T01:14:34;95240.78;;;21.79;36.20
48156;BME280;35568;48.104;11.782;2023-07-20T01:17:01;95236.86;;;21.54;36.86
48156;BME280;35568;48.104;11.782;2023-07-20T01:19:29;95229.97;;;22.05;37.73
48156;BME280;35568;48.104;11.782;2023-07-20T01:21:59;95223.79;;;21.85;39.55
48156;BME280;35568;48.104;11.782;2023-07-20T01:24:40;95221.94;;;21.23;41.30
48156;BME280;35568;48.104;11.782;2023-07-20T01:27:25;95223.88;;;21.26;41.73
48156;BME280;35568;48.104;11.782;2023-07-20T01:30:14;95224.55;;;20.84;42.58
48156;BME280;35568;48.104;11.782;2023-07-20T01:32:44;95220.62;;;20.60;43.22
48156;BME280;35568;48.104;11.782;2023-07-20T01:35:14;95222.80;;;20.54;43.51
48156;BME280;35568;48.104;11.782;2023-07-20T01:37:43;95221.51;;;20.47;43.80
48156;BME280;35568;48.104;11.782;2023-07-20T01:40:14;95224.61;;;20.47;44.33
48156;BME280;35568;48.104;11.782;2023-07-20T01:42:44;95222.92;;;20.33;44.37
48156;BME280;35568;48.104;11.782;2023-07-20T01:45:12;95225.17;;;20.13;44.85
48156;BME280;35568;48.104;11.782;2023-07-20T01:47:39;95227.41;;;19.95;45.26
48156;BME280;35568;48.104;11.782;2023-07-20T01:50:07;95225.51;;;19.87;45.90
48156;BME280;35568;48.104;11.782;2023-07-20T01:52:34;95223.65;;;20.14;46.07
48156;BME280;35568;48.104;11.782;2023-07-20T01:55:01;95229.01;;;19.87;46.04
48156;BME280;35568;48.104;11.782;2023-07-20T01:57:28;95228.96;;;19.93;46.35
48156;BME280;35568;48.104;11.782;2023-07-20T01:59:54;95226.15;;;20.02;46.63
48156;BME280;35568;48.104;11.782;2023-07-20T02:02:23;95227.50;;;19.89;46.32
48156;BME280;35568;48.104;11.782;2023-07-20T02:04:50;95227.09;;;19.70;46.63
48156;BME280;35568;48.104;11.782;2023-07-20T02:07:17;95229.88;;;19.61;46.81
48156;BME280;35568;48.104;11.782;2023-07-20T02:09:44;95232.78;;;19.85;46.80
48156;BME280;35568;48.104;11.782;2023-07-20T02:12:11;95235.61;;;19.76;46.79
48156;BME280;35568;48.104;11.782;2023-07-20T02:14:38;95236.13;;;19.70;46.92
48156;BME280;35568;48.104;11.782;2023-07-20T02:17:04;95234.11;;;19.45;46.86
48156;BME280;35568;48.104;11.782;2023-07-20T02:19:31;95238.90;;;19.55;47.01
48156;BME280;35568;48.104;11.782;2023-07-20T02:21:58;95233.14;;;19.64;46.89
48156;BME280;35568;48.104;11.782;2023-07-20T02:24:25;95237.79;;;19.36;46.71
48156;BME280;35568;48.104;11.782;2023-07-20T02:26:52;95246.66;;;19.16;47.07
48156;BME280;35568;48.104;11.782;2023-07-20T02:29:18;95243.43;;;19.60;46.94
48156;BME280;35568;48.104;11.782;2023-07-20T02:31:45;95237.94;;;19.69;46.55
48156;BME280;35568;48.104;11.782;2023-07-20T02:34:12;95233.29;;;19.76;46.33
48156;BME280;35568;48.104;11.782;2023-07-20T02:36:39;95236.47;;;19.87;46.50
48156;BME280;35568;48.104;11.782;2023-07-20T02:39:06;95237.79;;;19.61;46.33
48156;BME280;35568;48.104;11.782;2023-07-20T02:41:33;95236.88;;;19.68;46.56
48156;BME280;35568;48.104;11.782;2023-07-20T02:44:00;95251.17;;;19.73;46.55
48156;BME280;35568;48.104;11.782;2023-07-20T02:46:27;95235.38;;;19.71;46.45
48156;BME280;35568;48.104;11.782;2023-07-20T02:48:54;95222.68;;;19.87;46.30
48156;BME280;35568;48.104;11.782;2023-07-20T02:51:20;95227.28;;;19.89;46.12
48156;BME280;35568;48.104;11.782;2023-07-20T02:53:47;95230.41;;;19.81;46.15
48156;BME280;35568;48.104;11.782;2023-07-20T02:56:14;95234.58;;;19.85;45.96
48156;BME280;35568;48.104;11.782;2023-07-20T02:58:42;95231.86;;;19.96;45.90
48156;BME280;35568;48.104;11.782;2023-07-20T03:03:00;95237.85;;;19.81;45.06
48156;BME280;35568;48.104;11.782;2023-07-20T03:05:27;95241.92;;;20.06;44.97
48156;BME280;35568;48.104;11.782;2023-07-20T03:07:54;95248.71;;;19.61;45.42
48156;BME280;35568;48.104;11.782;2023-07-20T03:10:21;95260.04;;;19.26;45.97
48156;BME280;35568;48.104;11.782;2023-07-20T03:12:49;95272.87;;;19.71;46.43
48156;BME280;35568;48.104;11.782;2023-07-20T03:15:16;95275.58;;;19.55;47.05
48156;BME280;35568;48.104;11.782;2023-07-20T03:17:42;95267.40;;;19.45;47.74
48156;BME280;35568;48.104;11.782;2023-07-20T03:20:10;95254.06;;;19.54;48.79
48156;BME280;35568;48.104;11.782;2023-07-20T03:22:38;95263.82;;;19.25;49.03
48156;BME280;35568;48.104;11.782;2023-07-20T03:25:06;95272.58;;;19.21;49.04
48156;BME280;35568;48.104;11.782;2023-07-20T03:27:33;95278.78;;;19.00;49.80
48156;BME280;35568;48.104;11.782;2023-07-20T03:30:00;95273.72;;;19.06;50.08
48156;BME280;35568;48.104;11.782;2023-07-20T03:32:27;95270.97;;;19.15;49.90
48156;BME280;35568;48.104;11.782;2023-07-20T03:34:54;95272.83;;;18.93;49.52
48156;BME280;35568;48.104;11.782;2023-07-20T03:37:21;95275.80;;;19.44;48.90
48156;BME280;35568;48.104;11.782;2023-07-20T03:39:48;95284.05;;;19.27;48.75
48156;BME280;35568;48.104;11.782;2023-07-20T03:42:15;95289.35;;;18.85;49.80
48156;BME280;35568;48.104;11.782;2023-07-20T03:44:42;95303.12;;;18.42;49.97
48156;BME280;35568;48.104;11.782;2023-07-20T03:47:09;95304.29;;;18.46;50.15
48156;BME280;35568;48.104;11.782;2023-07-20T03:49:36;95295.11;;;18.44;50.15
48156;BME280;35568;48.104;11.782;2023-07-20T03:52:03;95302.24;;;18.13;50.70
48156;BME280;35568;48.104;11.782;2023-07-20T03:54:30;95302.25;;;18.07;51.06
48156;BME280;35568;48.104;11.782;2023-07-20T03:56:57;95300.78;;;18.01;51.94
48156;BME280;35568;48.104;11.782;2023-07-20T03:59:24;95304.32;;;17.98;51.96
48156;BME280;35568;48.104;11.782;2023-07-20T04:01:52;95303.74;;;18.05;51.93
48156;BME280;35568;48.104;11.782;2023-07-20T04:04:18;95303.61;;;18.16;51.63
48156;BME280;35568;48.104;11.782;2023-07-20T04:06:45;95302.59;;;18.06;51.97
48156;BME280;35568;48.104;11.782;2023-07-20T04:09:13;95301.98;;;17.87;51.43
48156;BME280;35568;48.104;11.782;2023-07-20T04:11:40;95306.21;;;17.95;51.69
48156;BME280;35568;48.104;11.782;2023-07-20T04:14:07;95309.29;;;17.98;51.42
48156;BME280;35568;48.104;11.782;2023-07-20T04:16:33;95312.66;;;17.80;50.99
48156;BME280;35568;48.104;11.782;2023-07-20T04:19:00;95310.65;;;17.83;51.32
48156;BME280;35568;48.104;11.782;2023-07-20T04:21:27;95309.59;;;17.89;51.29
48156;BME280;35568;48.104;11.782;2023-07-20T04:23:54;95306.25;;;17.64;51.26
48156;BME280;35568;48.104;11.782;2023-07-20T04:26:21;95304.91;;;18.12;51.09
48156;BME280;35568;48.104;11.782;2023-07-20T04:28:48;95300.36;;;18.23;50.34
48156;BME280;35568;48.104;11.782;2023-07-20T04:31:15;95296.05;;;18.28;50.48
48156;BME280;35568;48.104;11.782;2023-07-20T04:33:42;95301.46;;;18.30;50.28
48156;BME280;35568;48.104;11.782;2023-07-20T04:36:09;95301.16;;;18.31;50.01
48156;BME280;35568;48.104;11.782;2023-07-20T04:38:36;95302.88;;;18.32;49.65
48156;BME280;35568;48.104;11.782;2023-07-20T04:41:02;95308.06;;;18.15;49.98
48156;BME280;35568;48.104;11.782;2023-07-20T04:43:29;95311.61;;;18.17;49.95
48156;BME280;35568;48.104;11.782;2023-07-20T04:45:56;95310.72;;;17.88;49.96
48156;BME280;35568;48.104;11.782;2023-07-20T04:48:23;95314.33;;;18.47;49.82
48156;BME280;35568;48.104;11.782;2023-07-20T04:50:50;95315.05;;;18.16;49.52
48156;BME280;35568;48.104;11.782;2023-07-20T04:53:16;95316.04;;;18.06;49.57
48156;BME280;35568;48.104;11.782;2023-07-20T04:55:48;95317.93;;;18.00;49.91
48156;BME280;35568;48.104;11.782;2023-07-20T04:58:15;95316.80;;;18.25;49.84
48156;BME280;35568;48.104;11.782;2023-07-20T05:00:42;95315.01;;;18.34;49.69
48156;BME280;35568;48.104;11.782;2023-07-20T05:03:09;95316.76;;;18.09;49.95
48156;BME280;35568;48.104;11.782;2023-07-20T05:05:36;95315.76;;;18.30;49.74
48156;BME280;35568;48.104;11.782;2023-07-20T05:08:04;95320.97;;;18.32;49.81
48156;BME280;35568;48.104;11.782;2023-07-20T05:10:31;95317.72;;;18.55;50.05
48156;BME280;35568;48.104;11.782;2023-07-20T05:12:58;95322.46;;;18.11;50.17
48156;BME280;35568;48.104;11.782;2023-07-20T05:15:26;95328.89;;;18.15;50.59
48156;BME280;35568;48.104;11.782;2023-07-20T05:17:54;95332.86;;;18.67;50.95
48156;BME280;35568;48.104;11.782;2023-07-20T05:20:21;95334.84;;;17.99;51.27
48156;BME280;35568;48.104;11.782;2023-07-20T05:22:48;95337.34;;;18.31;51.33
48156;BME280;35568;48.104;11.782;2023-07-20T05:25:15;95335.01;;;17.96;51.67
48156;BME280;35568;48.104;11.782;2023-07-20T05:27:42;95334.45;;;18.02;51.41
48156;BME280;35568;48.104;11.782;2023-07-20T05:30:10;95332.67;;;18.13;51.37
48156;BME280;35568;48.104;11.782;2023-07-20T05:32:37;95332.42;;;18.37;51.29
48156;BME280;35568;48.104;11.782;2023-07-20T05:35:05;95330.80;;;18.56;51.22
48156;BME280;35568;48.104;11.782;2023-07-20T05:37:32;95332.46;;;18.05;51.57
48156;BME280;35568;48.104;11.782;2023-07-20T05:39:59;95331.32;;;18.17;51.25
48156;BME280;35568;48.104;11.782;2023-07-20T05:42:25;95330.10;;;18.44;50.89
48156;BME280;35568;48.104;11.782;2023-07-20T05:44:52;95327.73;;;18.25;51.17
48156;BME280;35568;48.104;11.782;2023-07-20T05:47:19;95330.64;;;18.40;50.74
48156;BME280;35568;48.104;11.782;2023-07-20T05:49:46;95330.26;;;18.57;50.59
48156;BME280;35568;48.104;11.782;2023-07-20T05:52:13;95333.02;;;18.78;50.18
48156;BME280;35568;48.104;11.782;2023-07-20T05:54:40;95336.04;;;19.16;50.05
48156;BME280;35568;48.104;11.782;2023-07-20T05:57:08;95334.73;;;19.32;49.61
48156;BME280;35568;48.104;11.782;2023-07-20T05:59:35;95333.49;;;18.92;49.65
48156;BME280;35568;48.104;11.782;2023-07-20T06:02:02;95331.65;;;19.16;50.08
48156;BME280;35568;48.104;11.782;2023-07-20T06:04:28;95333.86;;;19.02;50.23
48156;BME280;35568;48.104;11.782;2023-07-20T06:06:55;95337.13;;;19.17;49.84
48156;BME280;35568;48.104;11.782;2023-07-20T06:09:22;95337.55;;;18.93;49.78
48156;BME280;35568;48.104;11.782;2023-07-20T06:11:49;95341.24;;;19.35;49.20
48156;BME280;35568;48.104;11.782;2023-07-20T06:14:16;95348.23;;;19.24;48.72
48156;BME280;35568;48.104;11.782;2023-07-20T06:16:48;95345.22;;;19.55;48.82
48156;BME280;35568;48.104;11.782;2023-07-20T06:19:15;95349.28;;;19.51;48.46
48156;BME280;35568;48.104;11.782;2023-07-20T06:21:42;95351.47;;;19.90;48.10
48156;BME280;35568;48.104;11.782;2023-07-20T06:24:10;95348.59;;;20.19;48.22
48156;BME280;35568;48.104;11.782;2023-07-20T06:26:37;95347.51;;;20.09;47.87
48156;BME280;35568;48.104;11.782;2023-07-20T06:29:03;95341.14;;;20.38;47.82
48156;BME280;35568;48.104;11.782;2023-07-20T06:31:30;95342.69;;;20.57;47.40
48156;BME280;35568;48.104;11.782;2023-07-20T06:33:57;95345.19;;;20.51;46.87
48156;BME280;35568;48.104;11.782;2023-07-20T06:36:24;95343.00;;;20.46;46.21
48156;BME280;35568;48.104;11.782;2023-07-20T06:38:51;95348.55;;;20.89;46.11
48156;BME280;35568;48.104;11.782;2023-07-20T06:41:17;95349.23;;;20.85;45.90
48156;BME280;35568;48.104;11.782;2023-07-20T06:43:44;95348.11;;;20.95;45.64
48156;BME280;35568;48.104;11.782;2023-07-20T06:46:11;95352.46;;;20.96;45.13
48156;BME280;35568;48.104;11.782;2023-07-20T06:48:39;95351.17;;;21.00;45.11
48156;BME280;35568;48.104;11.782;2023-07-20T06:51:06;95346.24;;;20.93;44.97
48156;BME280;35568;48.104;11.782;2023-07-20T06:53:33;95346.95;;;21.14;44.67
48156;BME280;35568;48.104;11.782;2023-07-20T06:56:00;95347.30;;;21.06;44.87
48156;BME280;35568;48.104;11.782;2023-07-20T06:58:27;95347.49;;;20.73;43.96
48156;BME280;35568;48.104;11.782;2023-07-20T07:00:53;95344.11;;;20.60;43.24
48156;BME280;35568;48.104;11.782;2023-07-20T07:03:20;95342.21;;;21.05;43.03
48156;BME280;35568;48.104;11.782;2023-07-20T07:05:48;95341.62;;;21.09;42.48
48156;BME280;35568;48.104;11.782;2023-07-20T07:08:14;95346.81;;;21.25;41.40
48156;BME280;35568;48.104;11.782;2023-07-20T07:10:41;95347.12;;;21.56;40.44
48156;BME280;35568;48.104;11.782;2023-07-20T07:13:08;95344.19;;;22.40;39.90
48156;BME280;35568;48.104;11.782;2023-07-20T07:15:35;95341.54;;;22.52;38.56
48156;BME280;35568;48.104;11.782;2023-07-20T07:18:02;95342.00;;;22.93;37.94
48156;BME280;35568;48.104;11.782;2023-07-20T07:20:29;95340.50;;;22.41;37.96
48156;BME280;35568;48.104;11.782;2023-07-20T07:22:56;95344.99;;;22.18;37.67
48156;BME280;35568;48.104;11.782;2023-07-20T07:25:23;95342.13;;;22.77;37.11
48156;BME280;35568;48.104;11.782;2023-07-20T07:27:52;95340.13;;;23.02;35.93
48156;BME280;35568;48.104;11.782;2023-07-20T07:30:19;95340.49;;;23.09;37.81
48156;BME280;35568;48.104;11.782;2023-07-20T07:32:47;95343.00;;;23.40;37.70
48156;BME280;35568;48.104;11.782;2023-07-20T07:35:14;95339.62;;;24.29;35.51
48156;BME280;35568;48.104;11.782;2023-07-20T07:37:41;95342.18;;;24.55;34.44
48156;BME280;35568;48.104;11.782;2023-07-20T07:40:08;95342.91;;;24.47;32.81
48156;BME280;35568;48.104;11.782;2023-07-20T07:42:35;95340.44;;;24.59;32.93
48156;BME280;35568;48.104;11.782;2023-07-20T07:45:03;95342.19;;;24.18;32.39
48156;BME280;35568;48.104;11.782;2023-07-20T07:47:30;95342.27;;;23.83;31.86
48156;BME280;35568;48.104;11.782;2023-07-20T07:49:56;95344.23;;;23.81;31.15
48156;BME280;35568;48.104;11.782;2023-07-20T07:52:23;95344.36;;;24.04;30.93
48156;BME280;35568;48.104;11.782;2023-07-20T07:54:50;95340.96;;;24.24;30.75
48156;BME280;35568;48.104;11.782;2023-07-20T07:57:17;95343.24;;;24.20;32.47
48156;BME280;35568;48.104;11.782;2023-07-20T07:59:44;95344.70;;;23.90;31.25
48156;BME280;35568;48.104;11.782;2023-07-20T08:02:11;95346.77;;;23.98;30.38
48156;BME280;35568;48.104;11.782;2023-07-20T08:04:38;95345.57;;;23.64;30.96
48156;BME280;35568;48.104;11.782;2023-07-20T08:07:05;95348.60;;;23.44;30.87
48156;BME280;35568;48.104;11.782;2023-07-20T08:09:33;95352.46;;;23.41;31.20
48156;BME280;35568;48.104;11.782;2023-07-20T08:12:00;95350.73;;;23.65;31.43
48156;BME280;35568;48.104;11.782;2023-07-20T08:14:27;95346.50;;;23.59;31.96
48156;BME280;35568;48.104;11.782;2023-07-20T08:16:55;95350.83;;;23.73;31.68
48156;BME280;35568;48.104;11.782;2023-07-20T08:19:21;95351.38;;;23.43;31.98
48156;BME280;35568;48.104;11.782;2023-07-20T08:21:49;95349.59;;;22.84;32.61
48156;BME280;35568;48.104;11.782;2023-07-20T08:24:16;95350.57;;;23.55;32.63
48156;BME280;35568;48.104;11.782;2023-07-20T08:26:44;95342.90;;;24.16;32.68
48156;BME280;35568;48.104;11.782;2023-07-20T08:29:11;95347.72;;;24.64;32.05
48156;BME280;35568;48.104;11.782;2023-07-20T08:31:38;95346.83;;;24.66;30.36
48156;BME280;35568;48.104;11.782;2023-07-20T08:34:05;95344.82;;;24.42;30.96
48156;BME280;35568;48.104;11.782;2023-07-20T08:36:31;95352.15;;;24.26;32.88
48156;BME280;35568;48.104;11.782;2023-07-20T08:38:58;95350.25;;;24.67;33.33
48156;BME280;35568;48.104;11.782;2023-07-20T08:41:25;95354.28;;;24.72;33.72
48156;BME280;35568;48.104;11.782;2023-07-20T08:43:55;95353.36;;;24.15;33.62
48156;BME280;35568;48.104;11.782;2023-07-20T08:46:25;95351.39;;;23.58;33.73
48156;BME280;35568;48.104;11.782;2023-07-20T08:48:54;95352.93;;;24.23;33.94
48156;BME280;35568;48.104;11.782;2023-07-20T08:51:22;95351.56;;;24.21;33.92
48156;BME280;35568;48.104;11.782;2023-07-20T08:53:51;95354.58;;;24.21;31.74
48156;BME280;35568;48.104;11.782;2023-07-20T08:56:20;95349.78;;;25.51;29.40
48156;BME280;35568;48.104;11.782;2023-07-20T08:58:47;95346.20;;;26.11;27.13
48156;BME280;35568;48.104;11.782;2023-07-20T09:01:15;95349.36;;;25.84;27.62
48156;BME280;35568;48.104;11.782;2023-07-20T09:03:45;95349.33;;;25.54;28.19
48156;BME280;35568;48.104;11.782;2023-07-20T09:06:12;95352.02;;;25.62;28.11
48156;BME280;35568;48.104;11.782;2023-07-20T09:08:39;95348.87;;;25.59;28.58
48156;BME280;35568;48.104;11.782;2023-07-20T09:11:06;95343.00;;;25.78;28.59
48156;BME280;35568;48.104;11.782;2023-07-20T09:13:33;95348.16;;;24.61;29.35
48156;BME280;35568;48.104;11.782;2023-07-20T09:16:01;95342.66;;;25.43;28.34
48156;BME280;35568;48.104;11.782;2023-07-20T09:18:30;95344.35;;;25.68;29.09
48156;BME280;35568;48.104;11.782;2023-07-20T09:20:58;95347.82;;;26.09;29.36
48156;BME280;35568;48.104;11.782;2023-07-20T09:23:30;95344.30;;;26.11;28.81
48156;BME280;35568;48.104;11.782;2023-07-20T09:25:57;95345.32;;;26.09;27.25
48156;BME280;35568;48.104;11.782;2023-07-20T09:28:25;95337.38;;;26.97;25.49
48156;BME280;35568;48.104;11.782;2023-07-20T09:30:54;95323.03;;;27.72;25.24
48156;BME280;35568;48.104;11.782;2023-07-20T09:33:21;95326.19;;;27.87;25.00
48156;BME280;35568;48.104;11.782;2023-07-20T09:35:49;95322.42;;;28.39;24.51
48156;BME280;35568;48.104;11.782;2023-07-20T09:38:15;95323.61;;;28.56;24.16
48156;BME280;35568;48.104;11.782;2023-07-20T09:40:42;95319.57;;;29.69;23.21
48156;BME280;35568;48.104;11.782;2023-07-20T09:43:10;95318.95;;;30.08;22.31
48156;BME280;35568;48.104;11.782;2023-07-20T09:45:40;95322.26;;;29.77;22.86
48156;BME280;35568;48.104;11.782;2023-07-20T09:48:08;95324.05;;;29.64;23.35
48156;BME280;35568;48.104;11.782;2023-07-20T09:50:39;95326.61;;;29.12;22.70
48156;BME280;35568;48.104;11.782;2023-07-20T09:53:07;95323.65;;;28.54;23.22
48156;BME280;35568;48.104;11.782;2023-07-20T09:55:34;95321.11;;;27.86;23.93
48156;BME280;35568;48.104;11.782;2023-07-20T09:58:03;95318.27;;;27.35;24.68
48156;BME280;35568;48.104;11.782;2023-07-20T10:00:30;95324.42;;;27.60;25.38
48156;BME280;35568;48.104;11.782;2023-07-20T10:02:58;95320.14;;;27.14;25.28
48156;BME280;35568;48.104;11.782;2023-07-20T10:05:33;95321.70;;;27.79;24.92
48156;BME280;35568;48.104;11.782;2023-07-20T10:08:02;95322.62;;;28.61;23.89
48156;BME280;35568;48.104;11.782;2023-07-20T10:10:31;95318.72;;;28.48;24.61
48156;BME280;35568;48.104;11.782;2023-07-20T10:13:01;95319.95;;;28.01;24.52
48156;BME280;35568;48.104;11.782;2023-07-20T10:15:32;95317.44;;;28.64;23.39
48156;BME280;35568;48.104;11.782;2023-07-20T10:18:03;95314.01;;;29.58;22.70
48156;BME280;35568;48.104;11.782;2023-07-20T10:20:33;95317.20;;;28.87;23.07
48156;BME280;35568;48.104;11.782;2023-07-20T10:23:03;95316.67;;;27.98;23.28
48156;BME280;35568;48.104;11.782;2023-07-20T10:25:31;95309.65;;;28.04;23.93
48156;BME280;35568;48.104;11.782;2023-07-20T10:27:58;95309.35;;;28.38;23.97
48156;BME280;35568;48.104;11.782;2023-07-20T10:30:26;95307.47;;;28.10;23.85
48156;BME280;35568;48.104;11.782;2023-07-20T10:32:54;95305.81;;;29.20;23.02
48156;BME280;35568;48.104;11.782;2023-07-20T10:35:20;95302.33;;;30.59;22.41
48156;BME280;35568;48.104;11.782;2023-07-20T10:37:49;95306.85;;;30.62;21.61
48156;BME280;35568;48.104;11.782;2023-07-20T10:40:28;95306.24;;;30.52;21.19
48156;BME280;35568;48.104;11.782;2023-07-20T10:43:04;95296.50;;;30.08;22.20
48156;BME280;35568;48.104;11.782;2023-07-20T10:45:34;95300.47;;;29.06;22.75
48156;BME280;35568;48.104;11.782;2023-07-20T10:48:05;95297.76;;;29.96;22.19
48156;BME280;35568;48.104;11.782;2023-07-20T10:50:33;95296.90;;;29.90;22.73
48156;BME280;35568;48.104;11.782;2023-07-20T10:53:18;95291.64;;;29.79;22.18
48156;BME280;35568;48.104;11.782;2023-07-20T10:55:45;95289.18;;;30.01;22.45
48156;BME280;35568;48.104;11.782;2023-07-20T10:58:13;95291.32;;;30.18;21.29
48156;BME280;35568;48.104;11.782;2023-07-20T11:00:57;95286.61;;;29.76;21.71
48156;BME280;35568;48.104;11.782;2023-07-20T11:03:28;95289.18;;;29.76;22.27
48156;BME280;35568;48.104;11.782;2023-07-20T11:05:56;95285.02;;;29.61;22.41
48156;BME280;35568;48.104;11.782;2023-07-20T11:08:38;95287.49;;;30.39;22.56
48156;BME280;35568;48.104;11.782;2023-07-20T11:11:22;95285.82;;;31.38;21.18
48156;BME280;35568;48.104;11.782;2023-07-20T11:13:54;95281.80;;;30.86;20.89
48156;BME280;35568;48.104;11.782;2023-07-20T11:16:34;95279.48;;;31.47;20.98
48156;BME280;35568;48.104;11.782;2023-07-20T11:19:02;95274.68;;;31.95;21.18
48156;BME280;35568;48.104;11.782;2023-07-20T11:21:35;95264.91;;;33.06;20.07
48156;BME280;35568;48.104;11.782;2023-07-20T11:24:04;95269.73;;;33.14;19.65
48156;BME280;35568;48.104;11.782;2023-07-20T11:26:40;95265.79;;;33.06;19.55
48156;BME280;35568;48.104;11.782;2023-07-20T11:29:07;95267.28;;;32.04;19.76
48156;BME280;35568;48.104;11.782;2023-07-20T11:31:35;95262.45;;;32.30;20.21
48156;BME280;35568;48.104;11.782;2023-07-20T11:34:03;95258.33;;;30.96;21.13
48156;BME280;35568;48.104;11.782;2023-07-20T11:36:30;95265.77;;;30.55;21.47
48156;BME280;35568;48.104;11.782;2023-07-20T11:38:57;95261.07;;;30.21;22.17
48156;BME280;35568;48.104;11.782;2023-07-20T11:41:25;95260.75;;;30.02;21.90
48156;BME280;35568;48.104;11.782;2023-07-20T11:43:51;95261.11;;;29.54;22.91
48156;BME280;35568;48.104;11.782;2023-07-20T11:46:19;95260.33;;;29.07;23.16
48156;BME280;35568;48.104;11.782;2023-07-20T11:48:46;95258.74;;;29.38;22.56
48156;BME280;35568;48.104;11.782;2023-07-20T11:51:14;95258.14;;;29.77;22.92
48156;BME280;35568;48.104;11.782;2023-07-20T11:53:41;95253.43;;;30.22;21.88
48156;BME280;35568;48.104;11.782;2023-07-20T11:56:10;95255.85;;;30.56;21.68
48156;BME280;35568;48.104;11.782;2023-07-20T11:58:42;95244.53;;;31.74;20.81
48156;BME280;35568;48.104;11.782;2023-07-20T12:01:09;95239.73;;;32.35;19.55
48156;BME280;35568;48.104;11.782;2023-07-20T12:03:35;95232.69;;;33.06;19.21
48156;BME280;35568;48.104;11.782;2023-07-20T12:06:07;95228.97;;;32.15;20.26
48156;BME280;35568;48.104;11.782;2023-07-20T12:08:34;95228.85;;;32.81;19.21
48156;BME280;35568;48.104;11.782;2023-07-20T12:11:02;95222.16;;;33.45;19.03
48156;BME280;35568;48.104;11.782;2023-07-20T12:13:37;95226.61;;;33.29;19.22
48156;BME280;35568;48.104;11.782;2023-07-20T12:16:13;95221.30;;;34.06;18.41
48156;BME280;35568;48.104;11.782;2023-07-20T12:18:41;95219.10;;;33.86;18.30
48156;BME280;35568;48.104;11.782;2023-07-20T12:21:09;95215.75;;;33.37;18.43
48156;BME280;35568;48.104;11.782;2023-07-20T12:23:38;95211.51;;;33.14;18.59
48156;BME280;35568;48.104;11.782;2023-07-20T12:26:07;95208.96;;;33.45;18.79
48156;BME280;35568;48.104;11.782;2023-07-20T12:28:38;95212.38;;;33.70;18.61
48156;BME280;35568;48.104;11.782;2023-07-20T12:31:05;95207.35;;;33.81;18.31
48156;BME280;35568;48.104;11.782;2023-07-20T12:33:33;95205.81;;;33.40;18.81
48156;BME280;35568;48.104;11.782;2023-07-20T12:36:00;95199.76;;;33.55;18.26
48156;BME280;35568;48.104;11.782;2023-07-20T12:38:28;95202.69;;;32.45;19.29
48156;BME280;35568;48.104;11.782;2023-07-20T12:40:55;95203.36;;;32.92;19.54
48156;BME280;35568;48.104;11.782;2023-07-20T12:43:22;95193.52;;;33.67;18.11
48156;BME280;35568;48.104;11.782;2023-07-20T12:45:49;95192.44;;;33.49;18.49
48156;BME280;35568;48.104;11.782;2023-07-20T12:48:16;95192.74;;;33.70;18.62
48156;BME280;35568;48.104;11.782;2023-07-20T12:50:44;95191.79;;;33.04;18.68
48156;BME280;35568;48.104;11.782;2023-07-20T12:53:11;95187.62;;;33.89;18.07
48156;BME280;35568;48.104;11.782;2023-07-20T12:55:38;95184.18;;;34.43;18.03